Terminal Aerodrome Forecast
Issued by NWS

Home | Current Version | Previous Version | Graphics & Text | Print | Product List | Glossary On
Versions: 1 2 3 4 5 6 7 8 9 10 11 12 13 14 15 16 17 18
000
FTUS43 KTOP 070326 AAB
TAFFOE
TAF AMD
KFOE 070326Z 0703/0724 34007KT 2SM SHRA BR OVC009
     FM070500 36010KT 4SM BR OVC011
     FM070900 01009KT P6SM SCT010 BKN035
     FM071400 02009KT P6SM SCT100=

USA.gov is the U.S. government's official web portal to all federal, state and local government web resources and services.